Pisgah, Iowa
Current Conditions -  °F | °C
As of 10:16 PM on Monday 22 Dec 2014 (Local Time) from KTQE Reporting Station
Light Rain Light Rain  
Wind Chill: 29°   Ceiling: 2100
Heat Index: 37°   Visibility: 9mi
Dew Point: 34°   Wind: 13mph
Humidity: 89%   Direction: 310°NW
Pressure: 29.46"   Gusts: NA
Location:  41.83°N, 95.93°W
Report Text: KTQE 230416Z AUTO 31011KT 9SM -RA SCT009 OVC021 03/01 A2946 RMK AO2 P0002 T00280011
Loading
Personal Weather Stations






























Interactive Weather Map New forecast layout! Learn more

10-Day Weather Forecast

Advertisements
Track Severe Weather on mobile